createdAt,value
2019-04-16T00:03:42.991Z,48.36
2019-04-16T00:08:58.206Z,48.52
2019-04-16T00:14:13.248Z,48.47
2019-04-16T00:19:18.271Z,48.73
2019-04-16T00:24:30.061Z,48.87
2019-04-16T00:29:35.516Z,48.75
2019-04-16T00:34:44.595Z,48.94
2019-04-16T00:39:47.958Z,48.87
2019-04-16T00:44:53.012Z,49.14
2019-04-16T00:49:59.487Z,49.49
2019-04-16T00:55:06.679Z,49.48
2019-04-16T01:00:12.030Z,49.55
2019-04-16T01:05:19.130Z,50.00
2019-04-16T01:10:24.311Z,50.04
2019-04-16T01:15:32.091Z,50.10
2019-04-16T01:20:36.372Z,50.52
2019-04-16T01:25:41.666Z,51.07
2019-04-16T01:31:00.256Z,51.44
2019-04-16T01:36:13.062Z,51.31
2019-04-16T01:41:21.727Z,51.38
2019-04-16T01:46:25.334Z,51.29
2019-04-16T01:51:30.352Z,51.51
2019-04-16T01:56:35.458Z,51.69
2019-04-16T02:01:43.475Z,52.16
2019-04-16T02:06:47.320Z,52.23
2019-04-16T02:11:52.388Z,52.28
2019-04-16T02:16:57.630Z,52.75
2019-04-16T02:22:02.728Z,52.89
2019-04-16T02:27:07.776Z,52.83
2019-04-16T02:32:12.933Z,52.84
2019-04-16T02:37:17.843Z,52.92
2019-04-16T02:42:23.427Z,53.01
2019-04-16T02:47:28.653Z,53.12
2019-04-16T02:52:42.100Z,53.43
2019-04-16T02:58:08.911Z,53.36
2019-04-16T03:03:19.465Z,53.89
2019-04-16T03:08:24.530Z,54.13
2019-04-16T03:13:29.506Z,54.53
2019-04-16T03:18:46.898Z,54.88
2019-04-16T03:23:49.576Z,55.07
2019-04-16T03:28:55.633Z,55.16
2019-04-16T03:34:02.715Z,55.17
2019-04-16T03:39:12.284Z,55.40
2019-04-16T03:44:14.392Z,55.35
2019-04-16T03:49:19.750Z,55.50
2019-04-16T03:54:26.442Z,55.81
2019-04-16T03:59:31.702Z,55.87
2019-04-16T04:04:36.721Z,56.13
2019-04-16T04:09:41.890Z,56.64
2019-04-16T04:14:47.554Z,56.64
2019-04-16T04:19:53.457Z,57.10
2019-04-16T04:25:00.542Z,57.39
2019-04-16T04:30:06.743Z,57.45
2019-04-16T04:35:12.624Z,57.53
2019-04-16T04:40:18.365Z,57.65
2019-04-16T04:45:23.385Z,57.67
2019-04-16T04:50:29.318Z,58.24
2019-04-16T04:55:34.666Z,58.18
2019-04-16T05:00:41.440Z,58.13
2019-04-16T05:05:50.454Z,58.42
2019-04-16T05:11:25.598Z,58.62
2019-04-16T05:17:03.544Z,58.62
2019-04-16T05:22:12.233Z,58.77
2019-04-16T05:27:17.676Z,58.84
2019-04-16T05:32:25.684Z,58.60
2019-04-16T05:37:29.583Z,58.80
2019-04-16T05:42:35.132Z,59.12
2019-04-16T05:47:40.321Z,58.56
2019-04-16T05:52:45.434Z,58.45
2019-04-16T05:57:50.650Z,58.02
2019-04-16T06:02:56.696Z,57.87
2019-04-16T06:08:11.868Z,57.91
2019-04-16T06:13:28.066Z,57.96
2019-04-16T06:18:51.264Z,57.65
2019-04-16T06:24:04.101Z,57.67
2019-04-16T06:29:20.464Z,56.91
2019-04-16T06:34:32.588Z,56.79
2019-04-16T06:39:54.570Z,56.54
2019-04-16T06:45:04.802Z,56.07
2019-04-16T06:50:30.605Z,55.90
2019-04-16T06:55:58.248Z,55.63
2019-04-16T07:01:28.297Z,55.79
2019-04-16T07:06:49.008Z,55.30
2019-04-16T07:12:10.252Z,54.75
2019-04-16T07:17:17.994Z,54.13
2019-04-16T07:22:23.701Z,52.85
2019-04-16T07:27:44.885Z,52.77
2019-04-16T07:33:05.897Z,52.44
2019-04-16T07:38:26.194Z,52.39
2019-04-16T07:43:40.100Z,50.57
2019-04-16T07:49:01.137Z,50.02
2019-04-16T07:54:23.741Z,49.36
2019-04-16T07:59:32.366Z,47.88
2019-04-16T08:04:37.398Z,47.06
2019-04-16T08:09:42.494Z,46.17
2019-04-16T08:14:47.876Z,45.85
2019-04-16T08:19:55.546Z,45.58
2019-04-16T08:25:03.269Z,46.04
2019-04-16T08:30:12.040Z,45.56
2019-04-16T08:35:18.316Z,45.63
2019-04-16T08:40:32.403Z,45.60
2019-04-16T08:45:39.893Z,45.56
2019-04-16T08:50:50.352Z,44.54
2019-04-16T08:55:56.574Z,44.51
2019-04-16T09:01:01.772Z,44.05
2019-04-16T09:06:07.171Z,43.57
2019-04-16T09:11:23.076Z,43.70
2019-04-16T09:16:23.005Z,42.83
2019-04-16T09:21:28.349Z,43.15
2019-04-16T09:26:39.153Z,42.80
2019-04-16T09:31:59.591Z,41.14
2019-04-16T09:37:21.723Z,41.44
2019-04-16T09:42:28.942Z,39.35
2019-04-16T09:47:37.126Z,38.29
2019-04-16T09:52:42.304Z,37.60
2019-04-16T09:57:47.760Z,37.76
2019-04-16T10:02:55.716Z,36.50
2019-04-16T10:08:14.914Z,36.67
2019-04-16T10:13:31.155Z,35.92
2019-04-16T10:18:28.000Z,35.02
2019-04-16T10:23:42.292Z,34.60
2019-04-16T10:28:47.892Z,36.27
2019-04-16T10:33:52.425Z,34.17
2019-04-16T10:39:02.703Z,34.56
2019-04-16T10:44:22.174Z,33.79
2019-04-16T10:49:44.133Z,34.29
2019-04-16T10:55:12.171Z,33.80
2019-04-16T11:00:27.975Z,30.41
2019-04-16T11:05:56.805Z,29.43
2019-04-16T11:11:10.908Z,29.18
2019-04-16T11:16:17.449Z,29.32
2019-04-16T11:21:22.728Z,26.75
2019-04-16T11:26:27.812Z,26.15
2019-04-16T11:31:33.219Z,26.12
2019-04-16T11:36:38.356Z,26.83
2019-04-16T11:41:48.383Z,24.80
2019-04-16T11:46:53.503Z,24.42
2019-04-16T11:52:01.906Z,24.85
2019-04-16T11:57:07.471Z,24.30
2019-04-16T12:02:24.012Z,24.97
2019-04-16T12:07:57.038Z,24.10
2019-04-16T12:13:30.522Z,23.88
2019-04-16T12:18:58.395Z,23.24
2019-04-16T12:24:18.643Z,22.80
2019-04-16T12:29:49.490Z,23.20
2019-04-16T12:35:13.425Z,22.64
2019-04-16T12:40:45.428Z,21.84
2019-04-16T12:46:18.445Z,21.35
2019-04-16T12:51:47.995Z,21.11
2019-04-16T12:57:18.435Z,21.29
2019-04-16T13:02:35.789Z,21.54
2019-04-16T13:08:09.870Z,21.04
2019-04-16T13:13:29.464Z,21.95
2019-04-16T13:18:53.706Z,20.91
2019-04-16T13:24:05.672Z,20.65
2019-04-16T13:29:17.286Z,20.56
2019-04-16T13:34:22.754Z,20.95
2019-04-16T13:39:45.921Z,20.78
2019-04-16T13:44:56.095Z,21.98
2019-04-16T13:50:14.872Z,21.96
2019-04-16T13:55:30.710Z,22.96
2019-04-16T14:00:42.369Z,21.98
2019-04-16T14:05:47.522Z,22.51
2019-04-16T14:10:57.901Z,22.05
2019-04-16T14:16:11.705Z,21.58
2019-04-16T14:21:13.557Z,22.37
2019-04-16T14:26:19.225Z,22.13
2019-04-16T14:31:27.564Z,21.74
2019-04-16T14:36:33.243Z,22.23
2019-04-16T14:41:38.537Z,23.11
2019-04-16T14:46:44.246Z,22.59
2019-04-16T14:51:49.378Z,23.29
2019-04-16T14:56:59.279Z,23.58
2019-04-16T15:02:23.481Z,24.14
2019-04-16T15:07:37.279Z,24.32
2019-04-16T15:12:49.035Z,24.59
2019-04-16T15:18:16.048Z,24.42
2019-04-16T15:23:56.245Z,24.67
2019-04-16T15:29:23.316Z,25.72
2019-04-16T15:34:33.513Z,25.22
2019-04-16T15:39:43.348Z,25.83
2019-04-16T15:45:20.848Z,25.88
2019-04-16T15:50:54.542Z,25.02
2019-04-16T15:56:06.867Z,25.21
2019-04-16T16:01:31.357Z,24.91
2019-04-16T16:06:41.864Z,24.77
2019-04-16T16:11:58.315Z,25.71
2019-04-16T16:17:03.870Z,27.16
2019-04-16T16:22:11.902Z,27.49
2019-04-16T16:27:16.655Z,27.79
2019-04-16T16:32:21.850Z,28.92
2019-04-16T16:37:27.072Z,28.75
2019-04-16T16:42:32.672Z,28.64
2019-04-16T16:47:40.325Z,29.29
2019-04-16T16:53:03.274Z,29.83
2019-04-16T16:58:39.523Z,29.70
2019-04-16T17:04:01.714Z,30.06
2019-04-16T17:09:09.087Z,30.10
2019-04-16T17:14:17.516Z,30.16
2019-04-16T17:19:25.356Z,29.98
2019-04-16T17:24:32.297Z,30.36
2019-04-16T17:29:46.632Z,30.17
2019-04-16T17:34:52.015Z,30.39
2019-04-16T17:40:01.312Z,30.77
2019-04-16T17:45:29.535Z,30.89
2019-04-16T17:51:04.945Z,30.70
2019-04-16T17:56:32.161Z,30.71
2019-04-16T18:01:54.848Z,30.60
2019-04-16T18:07:25.160Z,30.71
2019-04-16T18:12:50.766Z,30.99
2019-04-16T18:18:02.051Z,30.85
2019-04-16T18:23:32.333Z,30.75
2019-04-16T18:28:41.817Z,30.62
2019-04-16T18:33:55.371Z,30.67
2019-04-16T18:39:25.579Z,30.82
2019-04-16T18:44:56.687Z,31.12
2019-04-16T18:50:05.784Z,31.43
2019-04-16T18:55:11.367Z,31.71
2019-04-16T19:00:34.728Z,31.94
2019-04-16T19:05:40.473Z,31.87
2019-04-16T19:10:47.119Z,32.29
2019-04-16T19:15:54.233Z,32.62
2019-04-16T19:20:59.605Z,32.43
2019-04-16T19:26:06.783Z,32.79
2019-04-16T19:31:12.176Z,32.71
2019-04-16T19:36:19.769Z,32.88
2019-04-16T19:41:26.979Z,32.76
2019-04-16T19:46:32.485Z,32.91
2019-04-16T19:51:41.244Z,32.92
2019-04-16T19:56:52.284Z,33.02
2019-04-16T20:02:01.649Z,33.02
2019-04-16T20:07:06.456Z,33.28
2019-04-16T20:12:13.527Z,33.54
2019-04-16T20:17:24.227Z,33.88
2019-04-16T20:22:30.679Z,34.03
2019-04-16T20:27:39.807Z,34.28
2019-04-16T20:32:44.320Z,34.47
2019-04-16T20:37:53.979Z,34.79
2019-04-16T20:42:57.569Z,34.87
2019-04-16T20:48:04.878Z,35.04
2019-04-16T20:53:09.902Z,35.42
2019-04-16T20:58:15.075Z,35.39
2019-04-16T21:03:22.552Z,35.60
2019-04-16T21:08:26.741Z,35.78
2019-04-16T21:13:35.153Z,35.60
2019-04-16T21:18:40.318Z,35.81
2019-04-16T21:23:45.325Z,35.85
2019-04-16T21:29:02.008Z,36.09
2019-04-16T21:34:16.704Z,35.95
2019-04-16T21:39:26.059Z,36.07
2019-04-16T21:44:31.214Z,36.23
2019-04-16T21:49:38.713Z,36.31
2019-04-16T21:54:43.009Z,36.51
2019-04-16T21:59:56.973Z,36.56
2019-04-16T22:05:02.660Z,36.85
2019-04-16T22:10:08.990Z,37.01
2019-04-16T22:15:14.426Z,37.30
2019-04-16T22:20:19.703Z,37.60
2019-04-16T22:25:31.006Z,37.76
2019-04-16T22:30:36.504Z,38.76
2019-04-16T22:35:47.440Z,38.37
2019-04-16T22:41:00.609Z,38.88
2019-04-16T22:46:18.124Z,37.96
2019-04-16T22:51:24.234Z,37.93
2019-04-16T22:56:40.695Z,38.01
2019-04-16T23:01:45.797Z,37.83
2019-04-16T23:06:51.752Z,37.75
2019-04-16T23:11:57.221Z,37.91
2019-04-16T23:17:03.202Z,37.92
2019-04-16T23:22:08.557Z,38.00
2019-04-16T23:27:16.666Z,38.07
2019-04-16T23:32:27.651Z,38.09
2019-04-16T23:37:29.986Z,38.10
2019-04-16T23:42:37.816Z,38.22
2019-04-16T23:48:08.238Z,38.24
2019-04-16T23:53:23.246Z,38.15
2019-04-16T23:58:37.213Z,38.50
